createdAt,value
2019-03-28T00:01:42.383Z,9.83
2019-03-28T00:04:12.049Z,14.77
2019-03-28T00:06:41.712Z,10.33
2019-03-28T00:09:11.353Z,10.57
2019-03-28T00:11:41.005Z,14.10
2019-03-28T00:14:10.667Z,11.63
2019-03-28T00:16:40.317Z,14.87
2019-03-28T00:19:09.976Z,10.80
2019-03-28T00:21:39.622Z,15.00
2019-03-28T00:24:13.586Z,13.10
2019-03-28T00:26:43.234Z,13.43
2019-03-28T00:29:13.043Z,16.00
2019-03-28T00:31:42.680Z,12.53
2019-03-28T00:34:12.354Z,10.70
2019-03-28T00:36:42.210Z,14.43
2019-03-28T00:39:11.938Z,9.97
2019-03-28T00:41:41.662Z,11.53
2019-03-28T00:44:11.309Z,11.63
2019-03-28T00:46:40.964Z,13.77
2019-03-28T00:49:10.695Z,14.90
2019-03-28T00:51:42.998Z,17.53
2019-03-28T00:54:11.728Z,14.20
2019-03-28T00:56:46.761Z,18.10
2019-03-28T00:59:12.765Z,11.67
2019-03-28T01:01:42.434Z,13.07
2019-03-28T01:04:12.082Z,21.13
2019-03-28T01:06:41.755Z,19.77
2019-03-28T01:09:11.471Z,13.70
2019-03-28T01:11:41.129Z,15.90
2019-03-28T01:14:12.021Z,13.40
2019-03-28T01:16:41.669Z,15.93
2019-03-28T01:19:11.329Z,16.40
2019-03-28T01:21:41.268Z,14.73
2019-03-28T01:24:11.230Z,16.30
2019-03-28T01:26:40.977Z,18.03
2019-03-28T01:29:10.651Z,19.63
2019-03-28T01:31:40.302Z,18.10
2019-03-28T01:34:09.959Z,16.33
2019-03-28T01:36:39.626Z,17.17
2019-03-28T01:39:09.708Z,19.37
2019-03-28T01:41:39.843Z,17.87
2019-03-28T01:44:09.495Z,30.33
2019-03-28T01:46:40.128Z,20.50
2019-03-28T01:49:09.778Z,18.50
2019-03-28T01:51:39.432Z,21.87
2019-03-28T01:54:09.081Z,17.27
2019-03-28T01:56:38.764Z,22.70
2019-03-28T01:59:08.413Z,19.07
2019-03-28T02:01:38.138Z,22.10
2019-03-28T02:04:07.805Z,27.30
2019-03-28T02:06:37.541Z,19.17
2019-03-28T02:09:07.924Z,19.80
2019-03-28T02:11:37.592Z,20.17
2019-03-28T02:14:07.317Z,16.70
2019-03-28T02:16:36.984Z,28.70
2019-03-28T02:19:06.635Z,25.33
2019-03-28T02:21:36.776Z,23.77
2019-03-28T02:24:06.435Z,21.73
2019-03-28T02:26:36.097Z,25.67
2019-03-28T02:29:05.768Z,27.57
2019-03-28T02:31:35.430Z,22.50
2019-03-28T02:34:05.195Z,22.90
2019-03-28T02:36:34.840Z,20.67
2019-03-28T02:39:06.446Z,25.53
2019-03-28T02:41:36.098Z,24.93
2019-03-28T02:44:05.830Z,22.13
2019-03-28T02:46:35.480Z,27.40
2019-03-28T02:49:06.668Z,27.20
2019-03-28T02:51:36.384Z,25.47
2019-03-28T02:54:06.066Z,25.53
2019-03-28T02:56:36.833Z,33.43
2019-03-28T02:59:06.494Z,25.03
2019-03-28T03:01:36.156Z,28.33
2019-03-28T03:04:05.820Z,26.63
2019-03-28T03:06:35.551Z,30.30
2019-03-28T03:09:09.630Z,23.77
2019-03-28T03:11:42.544Z,21.63
2019-03-28T03:14:11.851Z,24.90
2019-03-28T03:16:42.000Z,33.07
2019-03-28T03:19:11.617Z,23.43
2019-03-28T03:21:41.265Z,23.10
2019-03-28T03:24:10.928Z,23.30
2019-03-28T03:26:40.610Z,28.37
2019-03-28T03:29:10.305Z,22.53
2019-03-28T03:31:40.025Z,33.13
2019-03-28T03:34:09.683Z,25.90
2019-03-28T03:36:39.722Z,27.90
2019-03-28T03:39:10.089Z,27.07
2019-03-28T03:41:39.738Z,28.40
2019-03-28T03:44:09.399Z,24.67
2019-03-28T03:46:39.050Z,27.27
2019-03-28T03:49:08.714Z,25.10
2019-03-28T03:51:38.374Z,24.60
2019-03-28T03:54:08.099Z,33.27
2019-03-28T03:56:37.800Z,27.53
2019-03-28T03:59:07.460Z,28.87
2019-03-28T04:01:37.491Z,28.87
2019-03-28T04:04:07.161Z,22.60
2019-03-28T04:06:38.361Z,25.20
2019-03-28T04:09:08.351Z,24.80
2019-03-28T04:11:38.013Z,23.47
2019-03-28T04:14:07.666Z,22.13
2019-03-28T04:16:37.328Z,26.80
2019-03-28T04:19:06.981Z,29.23
2019-03-28T04:21:36.643Z,28.53
2019-03-28T04:24:06.343Z,24.17
2019-03-28T04:26:36.019Z,33.60
2019-03-28T04:29:05.678Z,37.87
2019-03-28T04:31:35.317Z,34.30
2019-03-28T04:34:07.791Z,25.93
2019-03-28T04:36:36.353Z,31.50
2019-03-28T04:39:06.657Z,33.10
2019-03-28T04:41:36.322Z,31.87
2019-03-28T04:44:05.975Z,26.47
2019-03-28T04:46:35.626Z,29.27
2019-03-28T04:49:05.296Z,28.10
2019-03-28T04:51:35.013Z,30.53
2019-03-28T04:54:04.674Z,27.37
2019-03-28T04:56:34.404Z,30.63
2019-03-28T04:59:04.066Z,28.27
2019-03-28T05:01:33.743Z,29.60
2019-03-28T05:04:03.398Z,27.43
2019-03-28T05:06:33.058Z,27.00
2019-03-28T05:09:02.707Z,30.23
2019-03-28T05:11:33.290Z,28.40
2019-03-28T05:14:03.102Z,34.03
2019-03-28T05:16:32.758Z,34.67
2019-03-28T05:19:02.409Z,28.83
2019-03-28T05:21:32.103Z,31.63
2019-03-28T05:24:01.794Z,29.77
2019-03-28T05:26:31.454Z,39.20
2019-03-28T05:29:01.089Z,30.97
2019-03-28T05:31:30.756Z,30.47
2019-03-28T05:34:00.409Z,36.17
2019-03-28T05:36:30.067Z,31.07
2019-03-28T05:38:59.725Z,36.03
2019-03-28T05:41:29.389Z,28.27
2019-03-28T05:43:59.105Z,34.70
2019-03-28T05:46:28.764Z,43.17
2019-03-28T05:48:58.414Z,34.03
2019-03-28T05:51:28.078Z,36.43
2019-03-28T05:53:57.731Z,35.00
2019-03-28T05:56:27.387Z,30.53
2019-03-28T05:59:09.885Z,36.53
2019-03-28T06:01:28.499Z,37.57
2019-03-28T06:03:58.165Z,38.37
2019-03-28T06:06:27.813Z,31.53
2019-03-28T06:08:57.474Z,35.40
2019-03-28T06:11:27.126Z,29.43
2019-03-28T06:13:56.785Z,36.70
2019-03-28T06:16:26.508Z,30.03
2019-03-28T06:18:56.173Z,33.63
2019-03-28T06:21:25.905Z,39.43
2019-03-28T06:23:55.578Z,33.77
2019-03-28T06:26:25.225Z,31.07
2019-03-28T06:28:54.876Z,31.23
2019-03-28T06:31:24.540Z,34.90
2019-03-28T06:33:55.738Z,28.03
2019-03-28T06:36:27.456Z,33.47
2019-03-28T06:38:57.138Z,31.87
2019-03-28T06:41:26.792Z,34.67
2019-03-28T06:43:56.433Z,32.33
2019-03-28T06:46:26.090Z,30.90
2019-03-28T06:48:56.080Z,27.20
2019-03-28T06:51:25.824Z,35.13
2019-03-28T06:53:57.156Z,27.50
2019-03-28T06:56:27.009Z,27.10
2019-03-28T06:58:56.666Z,37.63
2019-03-28T07:01:26.328Z,36.00
2019-03-28T07:03:55.988Z,34.13
2019-03-28T07:06:25.632Z,34.57
2019-03-28T07:08:55.291Z,32.53
2019-03-28T07:11:24.966Z,35.57
2019-03-28T07:13:54.618Z,25.00
2019-03-28T07:16:24.270Z,29.87
2019-03-28T07:18:53.925Z,32.53
2019-03-28T07:21:23.584Z,30.53
2019-03-28T07:23:53.246Z,32.00
2019-03-28T07:26:22.902Z,31.23
2019-03-28T07:28:54.289Z,37.07
2019-03-28T07:31:24.020Z,33.23
2019-03-28T07:33:53.682Z,30.27
2019-03-28T07:36:23.424Z,32.87
2019-03-28T07:38:53.074Z,27.67
2019-03-28T07:41:22.736Z,34.20
2019-03-28T07:43:52.473Z,33.33
2019-03-28T07:46:22.130Z,32.63
2019-03-28T07:48:51.797Z,31.30
2019-03-28T07:51:21.475Z,34.20
2019-03-28T07:53:51.130Z,31.00
2019-03-28T07:56:20.807Z,28.33
2019-03-28T07:58:50.473Z,27.87
2019-03-28T08:01:20.124Z,25.30
2019-03-28T08:03:49.807Z,29.47
2019-03-28T08:06:20.594Z,32.00
2019-03-28T08:08:51.401Z,29.57
2019-03-28T08:11:21.128Z,31.80
2019-03-28T08:13:50.892Z,34.73
2019-03-28T08:16:20.561Z,27.77
2019-03-28T08:18:50.221Z,28.20
2019-03-28T08:21:21.384Z,26.87
2019-03-28T08:23:51.189Z,25.90
2019-03-28T08:26:20.841Z,30.50
2019-03-28T08:28:50.516Z,30.57
2019-03-28T08:31:20.193Z,28.47
2019-03-28T08:33:50.107Z,25.97
2019-03-28T08:36:19.976Z,25.90
2019-03-28T08:38:52.851Z,30.83
2019-03-28T08:41:22.573Z,27.83
2019-03-28T08:43:52.242Z,30.10
2019-03-28T08:46:21.913Z,24.83
2019-03-28T08:48:51.576Z,25.30
2019-03-28T08:51:21.322Z,25.07
2019-03-28T08:53:52.004Z,27.63
2019-03-28T08:56:21.658Z,23.33
2019-03-28T08:58:51.342Z,28.90
2019-03-28T09:01:22.371Z,25.43
2019-03-28T09:03:53.871Z,22.40
2019-03-28T09:06:23.544Z,27.47
2019-03-28T09:08:53.204Z,24.70
2019-03-28T09:11:22.866Z,26.27
2019-03-28T09:13:52.541Z,32.43
2019-03-28T09:16:22.211Z,28.70
2019-03-28T09:18:52.434Z,25.17
2019-03-28T09:21:22.092Z,26.30
2019-03-28T09:23:52.671Z,23.70
2019-03-28T09:26:22.327Z,25.43
2019-03-28T09:28:52.035Z,27.03
2019-03-28T09:31:21.832Z,26.17
2019-03-28T09:33:51.570Z,20.17
2019-03-28T09:36:21.227Z,20.97
2019-03-28T09:38:50.901Z,24.80
2019-03-28T09:41:20.561Z,20.53
2019-03-28T09:43:55.567Z,23.57
2019-03-28T09:46:23.117Z,23.90
2019-03-28T09:48:52.757Z,24.03
2019-03-28T09:51:22.411Z,19.60
2019-03-28T09:53:52.072Z,18.63
2019-03-28T09:56:21.742Z,18.53
2019-03-28T09:58:51.403Z,19.17
2019-03-28T10:01:21.075Z,18.60
2019-03-28T10:03:51.222Z,17.90
2019-03-28T10:06:20.878Z,17.83
2019-03-28T10:08:50.542Z,18.20
2019-03-28T10:11:20.211Z,19.37
2019-03-28T10:13:49.936Z,18.47
2019-03-28T10:16:21.982Z,18.23
2019-03-28T10:18:51.637Z,16.80
2019-03-28T10:21:23.078Z,17.53
2019-03-28T10:23:52.731Z,18.93
2019-03-28T10:26:22.410Z,17.10
2019-03-28T10:28:52.078Z,16.17
2019-03-28T10:31:21.903Z,16.77
2019-03-28T10:33:52.024Z,21.50
2019-03-28T10:36:21.709Z,16.50
2019-03-28T10:38:51.370Z,15.50
2019-03-28T10:41:21.030Z,14.10
2019-03-28T10:43:50.691Z,14.20
2019-03-28T10:46:20.361Z,15.20
2019-03-28T10:48:50.028Z,14.93
2019-03-28T10:51:19.694Z,12.73
2019-03-28T10:53:49.362Z,13.93
2019-03-28T10:56:23.410Z,12.63
2019-03-28T10:58:50.655Z,14.37
2019-03-28T11:01:36.100Z,14.43
2019-03-28T11:03:51.848Z,13.17
2019-03-28T11:06:21.516Z,12.83
2019-03-28T11:08:51.190Z,12.87
2019-03-28T11:11:20.860Z,12.70
2019-03-28T11:13:50.519Z,12.83
2019-03-28T11:16:20.191Z,11.47
2019-03-28T11:18:49.912Z,11.30
2019-03-28T11:21:19.579Z,11.10
2019-03-28T11:23:49.229Z,9.73
2019-03-28T11:26:18.899Z,10.17
2019-03-28T11:28:48.554Z,10.33
2019-03-28T11:31:18.256Z,11.30
2019-03-28T11:33:47.900Z,12.33
2019-03-28T11:36:17.573Z,11.30
2019-03-28T11:38:47.245Z,11.97
2019-03-28T11:41:16.894Z,10.57
2019-03-28T11:43:46.557Z,9.17
2019-03-28T11:46:16.206Z,8.50
2019-03-28T11:48:45.863Z,7.93
2019-03-28T11:51:16.842Z,8.73
2019-03-28T11:53:46.493Z,7.73
2019-03-28T11:56:16.139Z,8.40
2019-03-28T11:58:45.801Z,7.27
2019-03-28T12:01:15.486Z,6.43
2019-03-28T12:03:45.153Z,8.83
2019-03-28T12:06:14.805Z,8.10
2019-03-28T12:08:44.466Z,7.10
2019-03-28T12:11:14.128Z,6.97
2019-03-28T12:13:45.175Z,7.27
2019-03-28T12:16:15.103Z,8.60
2019-03-28T12:18:44.770Z,7.40
2019-03-28T12:21:14.428Z,7.43
2019-03-28T12:23:45.103Z,7.33
2019-03-28T12:26:14.794Z,6.83
2019-03-28T12:28:44.445Z,6.20
2019-03-28T12:31:14.111Z,5.67
2019-03-28T12:33:43.782Z,5.57
2019-03-28T12:36:13.457Z,5.93
2019-03-28T12:38:43.106Z,7.07
2019-03-28T12:41:12.752Z,8.80
2019-03-28T12:43:42.414Z,9.67
2019-03-28T12:46:12.061Z,9.60
2019-03-28T12:48:41.722Z,8.43
2019-03-28T12:51:12.912Z,9.73
2019-03-28T12:53:42.580Z,9.67
2019-03-28T12:56:12.459Z,8.90
2019-03-28T12:58:42.351Z,8.53
2019-03-28T13:01:12.878Z,10.87
2019-03-28T13:03:45.656Z,10.10
2019-03-28T13:06:13.932Z,12.17
2019-03-28T13:08:43.835Z,9.80
2019-03-28T13:11:13.643Z,9.57
2019-03-28T13:13:43.291Z,10.00
2019-03-28T13:16:12.952Z,8.80
2019-03-28T13:18:42.615Z,8.23
2019-03-28T13:21:13.690Z,8.43
2019-03-28T13:23:43.808Z,8.13
2019-03-28T13:26:13.623Z,8.93
2019-03-28T13:28:43.291Z,8.77
2019-03-28T13:31:13.950Z,9.03
2019-03-28T13:33:43.672Z,8.90
2019-03-28T13:36:13.341Z,8.47
2019-03-28T13:38:43.062Z,7.67
2019-03-28T13:41:12.696Z,6.80
2019-03-28T13:43:42.384Z,7.63
2019-03-28T13:46:12.051Z,8.23
2019-03-28T13:48:41.706Z,7.80
2019-03-28T13:51:11.426Z,8.00
2019-03-28T13:53:41.089Z,8.53
2019-03-28T13:56:10.738Z,8.67
2019-03-28T13:58:40.417Z,9.37
2019-03-28T14:01:10.129Z,8.93
2019-03-28T14:03:39.781Z,7.70
2019-03-28T14:06:09.443Z,7.20
2019-03-28T14:08:39.108Z,7.27
2019-03-28T14:11:08.937Z,7.47
2019-03-28T14:13:38.647Z,7.63
2019-03-28T14:16:08.319Z,7.93
2019-03-28T14:18:37.996Z,6.80
2019-03-28T14:21:07.671Z,6.50
2019-03-28T14:23:37.316Z,6.67
2019-03-28T14:26:06.997Z,5.63
2019-03-28T14:28:36.646Z,5.80
2019-03-28T14:31:07.514Z,5.43
2019-03-28T14:33:37.341Z,5.40
2019-03-28T14:36:07.016Z,5.97
2019-03-28T14:38:37.601Z,4.87
2019-03-28T14:41:07.416Z,5.20
2019-03-28T14:43:37.093Z,5.00
2019-03-28T14:46:06.829Z,5.40
2019-03-28T14:48:36.688Z,5.30
2019-03-28T14:51:06.318Z,5.27
2019-03-28T14:53:35.982Z,4.50
2019-03-28T14:56:06.083Z,4.63
2019-03-28T14:58:39.259Z,4.67
2019-03-28T15:01:09.957Z,4.87
2019-03-28T15:03:39.618Z,5.30
2019-03-28T15:06:09.345Z,4.60
2019-03-28T15:08:39.079Z,5.83
2019-03-28T15:11:10.237Z,4.13
2019-03-28T15:13:40.623Z,4.30
2019-03-28T15:16:10.398Z,3.80
2019-03-28T15:18:40.063Z,3.57
2019-03-28T15:21:09.759Z,3.70
2019-03-28T15:23:39.426Z,6.57
2019-03-28T15:26:09.082Z,3.23
2019-03-28T15:28:38.751Z,3.77
2019-03-28T15:31:08.489Z,4.50
2019-03-28T15:33:39.801Z,3.20
2019-03-28T15:36:09.766Z,4.13
2019-03-28T15:38:39.947Z,4.37
2019-03-28T15:41:09.761Z,3.50
2019-03-28T15:43:39.983Z,4.03
2019-03-28T15:46:09.667Z,7.80
2019-03-28T15:48:39.335Z,4.67
2019-03-28T15:51:08.987Z,5.03
2019-03-28T15:53:38.655Z,5.33
2019-03-28T15:56:08.334Z,5.50
2019-03-28T15:58:37.988Z,4.17
2019-03-28T16:01:07.825Z,4.53
2019-03-28T16:03:37.688Z,5.20
2019-03-28T16:06:08.450Z,5.07
2019-03-28T16:08:38.745Z,4.07
2019-03-28T16:11:08.405Z,4.10
2019-03-28T16:13:38.073Z,4.97
2019-03-28T16:16:08.877Z,5.33
2019-03-28T16:18:39.636Z,3.73
2019-03-28T16:21:11.016Z,4.20
2019-03-28T16:23:40.680Z,4.20
2019-03-28T16:26:10.335Z,4.30
2019-03-28T16:28:40.800Z,4.30
2019-03-28T16:31:10.597Z,4.23
2019-03-28T16:33:40.262Z,3.73
2019-03-28T16:36:09.916Z,4.80
2019-03-28T16:38:39.582Z,4.10
2019-03-28T16:41:09.234Z,5.03
2019-03-28T16:43:38.907Z,4.23
2019-03-28T16:46:08.625Z,4.20
2019-03-28T16:48:38.278Z,4.77
2019-03-28T16:51:07.931Z,4.40
2019-03-28T16:53:37.581Z,4.90
2019-03-28T16:56:07.256Z,4.47
2019-03-28T16:58:36.906Z,5.47
2019-03-28T17:01:06.714Z,4.67
2019-03-28T17:03:36.362Z,4.60
2019-03-28T17:06:06.031Z,5.00
2019-03-28T17:08:35.933Z,5.03
2019-03-28T17:11:05.825Z,4.13
2019-03-28T17:13:35.479Z,5.97
2019-03-28T17:16:05.483Z,4.07
2019-03-28T17:18:35.142Z,4.27
2019-03-28T17:21:06.372Z,4.63
2019-03-28T17:23:36.028Z,4.37
2019-03-28T17:26:05.756Z,5.10
2019-03-28T17:28:35.416Z,4.20
2019-03-28T17:31:05.147Z,4.33
2019-03-28T17:33:34.814Z,5.00
2019-03-28T17:36:04.472Z,6.57
2019-03-28T17:38:34.131Z,4.20
2019-03-28T17:41:06.401Z,5.37
2019-03-28T17:43:35.170Z,4.00
2019-03-28T17:46:04.885Z,5.50
2019-03-28T17:48:34.566Z,4.90
2019-03-28T17:51:04.215Z,4.00
2019-03-28T17:53:33.867Z,4.07
2019-03-28T17:56:03.806Z,4.47
2019-03-28T17:58:33.451Z,4.43
2019-03-28T18:01:03.185Z,4.60
2019-03-28T18:03:32.842Z,5.07
2019-03-28T18:06:02.556Z,6.23
2019-03-28T18:08:32.299Z,4.93
2019-03-28T18:11:01.971Z,4.70
2019-03-28T18:13:31.696Z,4.80
2019-03-28T18:16:01.346Z,4.50
2019-03-28T18:18:31.071Z,4.50
2019-03-28T18:21:00.740Z,4.50
2019-03-28T18:23:30.477Z,4.73
2019-03-28T18:26:00.131Z,6.10
2019-03-28T18:28:31.525Z,4.60
2019-03-28T18:31:01.211Z,4.43
2019-03-28T18:33:30.833Z,4.40
2019-03-28T18:36:00.633Z,4.80
2019-03-28T18:38:30.980Z,4.63
2019-03-28T18:41:00.756Z,4.60
2019-03-28T18:43:30.952Z,6.83
2019-03-28T18:46:00.601Z,5.03
2019-03-28T18:48:36.159Z,4.80
2019-03-28T18:51:01.607Z,4.90
2019-03-28T18:53:31.300Z,4.47
2019-03-28T18:56:01.024Z,5.20
2019-03-28T18:58:31.730Z,5.13
2019-03-28T19:01:01.638Z,5.90
2019-03-28T19:03:31.294Z,5.63
2019-03-28T19:06:00.958Z,6.47
2019-03-28T19:08:30.616Z,5.70
2019-03-28T19:11:01.506Z,5.93
2019-03-28T19:13:31.176Z,6.30
2019-03-28T19:16:00.824Z,9.20
2019-03-28T19:18:30.486Z,5.90
2019-03-28T19:21:00.130Z,6.93
2019-03-28T19:23:29.878Z,7.07
2019-03-28T19:26:01.043Z,7.00
2019-03-28T19:28:30.971Z,6.33
2019-03-28T19:31:00.632Z,7.53
2019-03-28T19:33:31.722Z,8.33
2019-03-28T19:36:03.421Z,7.87
2019-03-28T19:38:34.050Z,7.77
2019-03-28T19:41:03.891Z,7.67
2019-03-28T19:43:35.120Z,7.70
2019-03-28T19:46:04.795Z,8.57
2019-03-28T19:48:34.458Z,8.47
2019-03-28T19:51:04.131Z,9.30
2019-03-28T19:53:35.292Z,9.43
2019-03-28T19:56:05.286Z,9.30
2019-03-28T19:58:35.300Z,8.70
2019-03-28T20:01:05.993Z,9.73
2019-03-28T20:03:35.659Z,9.20
2019-03-28T20:06:05.377Z,9.00
2019-03-28T20:08:35.122Z,9.50
2019-03-28T20:11:04.790Z,9.00
2019-03-28T20:13:34.444Z,10.17
2019-03-28T20:16:04.100Z,10.37
2019-03-28T20:18:33.756Z,10.47
2019-03-28T20:21:03.426Z,10.10
2019-03-28T20:23:35.610Z,9.53
2019-03-28T20:26:04.540Z,10.30
2019-03-28T20:28:34.198Z,10.23
2019-03-28T20:31:04.007Z,9.87
2019-03-28T20:33:33.731Z,12.47
2019-03-28T20:36:30.013Z,9.90
2019-03-28T20:38:34.841Z,9.33
2019-03-28T20:41:04.566Z,9.47
2019-03-28T20:43:34.232Z,10.17
2019-03-28T20:46:06.868Z,10.57
2019-03-28T20:48:38.800Z,9.43
2019-03-28T20:51:07.905Z,10.57
2019-03-28T20:53:37.907Z,10.83
2019-03-28T20:56:07.792Z,10.40
2019-03-28T20:58:37.457Z,10.40
2019-03-28T21:01:07.183Z,10.23
2019-03-28T21:03:37.471Z,10.60
2019-03-28T21:06:15.220Z,10.70
2019-03-28T21:08:38.499Z,9.47
2019-03-28T21:11:08.382Z,10.97
2019-03-28T21:13:38.059Z,10.60
2019-03-28T21:16:07.724Z,11.07
2019-03-28T21:18:37.432Z,10.83
2019-03-28T21:21:07.109Z,11.20
2019-03-28T21:23:36.784Z,11.00
2019-03-28T21:26:07.845Z,11.43
2019-03-28T21:28:46.988Z,10.33
2019-03-28T21:31:09.088Z,11.30
2019-03-28T21:33:38.802Z,11.13
2019-03-28T21:36:09.566Z,10.63
2019-03-28T21:38:39.243Z,10.10
2019-03-28T21:41:08.915Z,10.77
2019-03-28T21:43:39.916Z,11.03
2019-03-28T21:46:09.859Z,10.87
2019-03-28T21:48:39.530Z,10.97
2019-03-28T21:51:11.521Z,11.13
2019-03-28T21:53:40.587Z,10.93
2019-03-28T21:56:10.240Z,10.23
2019-03-28T21:58:39.905Z,10.43
2019-03-28T22:01:09.650Z,10.80
2019-03-28T22:03:39.930Z,10.83
2019-03-28T22:06:09.748Z,10.37
2019-03-28T22:08:39.423Z,10.83
2019-03-28T22:11:09.090Z,10.33
2019-03-28T22:13:38.765Z,11.03
2019-03-28T22:16:09.860Z,11.03
2019-03-28T22:18:39.573Z,11.03
2019-03-28T22:21:09.384Z,10.13
2019-03-28T22:23:39.685Z,10.73
2019-03-28T22:26:09.386Z,10.13
2019-03-28T22:28:39.039Z,10.60
2019-03-28T22:31:08.707Z,11.43
2019-03-28T22:33:38.365Z,10.53
2019-03-28T22:36:08.530Z,10.17
2019-03-28T22:38:38.182Z,9.87
2019-03-28T22:41:07.871Z,10.73
2019-03-28T22:43:38.958Z,10.73
2019-03-28T22:46:09.776Z,11.03
2019-03-28T22:48:40.076Z,10.97
2019-03-28T22:51:09.861Z,10.63
2019-03-28T22:53:39.545Z,10.13
2019-03-28T22:56:09.270Z,10.27
2019-03-28T22:58:38.920Z,10.23
2019-03-28T23:01:08.998Z,10.83
2019-03-28T23:03:38.654Z,10.13
2019-03-28T23:06:08.328Z,10.93
2019-03-28T23:08:37.998Z,10.97
2019-03-28T23:11:07.679Z,11.00
2019-03-28T23:13:37.338Z,11.63
2019-03-28T23:16:06.995Z,10.40
2019-03-28T23:18:36.674Z,10.90
2019-03-28T23:21:06.690Z,10.80
2019-03-28T23:23:36.356Z,10.37
2019-03-28T23:26:06.015Z,11.20
2019-03-28T23:28:35.683Z,10.53
2019-03-28T23:31:05.408Z,10.43
2019-03-28T23:33:35.074Z,10.57
2019-03-28T23:36:04.750Z,10.33
2019-03-28T23:38:34.413Z,10.70
2019-03-28T23:41:04.149Z,10.13
2019-03-28T23:43:33.833Z,11.43
2019-03-28T23:46:03.491Z,11.43
2019-03-28T23:48:33.156Z,10.30
2019-03-28T23:51:02.828Z,11.83
2019-03-28T23:53:32.497Z,11.13
2019-03-28T23:56:02.230Z,13.47
2019-03-28T23:58:33.425Z,10.37
